Time;durP1;ratioP1;P1;durP2;ratioP2;P2;SDS_P1;SDS_P2;PMS_P1;PMS_P2;Temp;Humidity;BMP_temperature;BMP_pressure;BME280_temperature;BME280_humidity;BME280_pressure;Samples;Min_cycle;Max_cycle;Signal;HPM_P1;HPM_P2
2023/09/22 00:01:21;;;;;;;18.60;12.07;;;;;;;12.58;100.00;99627.25;4965842;28;20039;-49
2023/09/22 00:03:47;;;;;;;20.90;12.05;;;;;;;12.27;100.00;99573.63;4975431;28;20038;-56
2023/09/22 00:06:14;;;;;;;23.42;13.25;;;;;;;12.27;100.00;99575.41;4975056;28;20043;-49
2023/09/22 00:08:39;;;;;;;21.33;13.30;;;;;;;12.56;100.00;99629.09;4975749;28;20502;-53
2023/09/22 00:11:08;;;;;;;18.60;11.10;;;;;;;12.62;100.00;99634.88;4974885;28;20050;-47
2023/09/22 00:13:33;;;;;;;15.55;10.45;;;;;;;12.51;100.00;99616.19;4974071;28;20122;-51
2023/09/22 00:15:58;;;;;;;19.30;11.13;;;;;;;12.65;100.00;99631.19;4975739;28;20117;-49
2023/09/22 00:18:24;;;;;;;18.60;11.15;;;;;;;12.56;100.00;99606.19;4974598;28;20501;-48
2023/09/22 00:20:49;;;;;;;20.55;11.18;;;;;;;12.65;100.00;99620.63;4975311;28;20037;-50
2023/09/22 00:23:15;;;;;;;16.17;11.23;;;;;;;12.60;100.00;99628.00;4975867;28;20109;-50
2023/09/22 00:25:40;;;;;;;22.67;11.80;;;;;;;12.24;100.00;99572.97;4975417;28;20478;-47
2023/09/22 00:28:07;;;;;;;23.00;12.73;;;;;;;12.61;100.00;99653.47;4958140;28;20470;-50
2023/09/22 00:30:32;;;;;;;18.85;12.85;;;;;;;12.12;100.00;99582.44;4975482;28;20489;-53
2023/09/22 00:32:58;;;;;;;25.20;13.63;;;;;;;12.30;100.00;99620.94;4975511;28;20038;-55
2023/09/22 00:35:23;;;;;;;21.02;12.93;;;;;;;12.65;100.00;99660.22;4971939;28;20057;-52
2023/09/22 00:37:50;;;;;;;25.33;13.10;;;;;;;12.72;100.00;99656.31;4975461;28;20041;-49
2023/09/22 00:40:15;;;;;;;21.77;13.68;;;;;;;12.56;100.00;99624.69;4975206;28;20474;-53
2023/09/22 00:42:41;;;;;;;30.33;15.07;;;;;;;12.72;100.00;99651.03;4975449;28;20104;-50
2023/09/22 00:45:07;;;;;;;33.35;17.38;;;;;;;12.53;100.00;99624.00;4958150;28;20045;-49
2023/09/22 00:47:33;;;;;;;42.38;19.80;;;;;;;12.68;100.00;99647.72;4975095;28;20035;-53
2023/09/22 00:49:58;;;;;;;46.40;21.63;;;;;;;12.36;100.00;99598.63;4957684;28;20045;-46
2023/09/22 00:52:25;;;;;;;53.85;23.13;;;;;;;12.35;100.00;99591.63;4973923;28;20027;-48
2023/09/22 00:54:50;;;;;;;62.63;25.40;;;;;;;12.71;100.00;99662.50;4974545;28;20071;-50
2023/09/22 00:57:17;;;;;;;63.67;27.60;;;;;;;12.66;100.00;99654.03;4970819;28;20108;-50
2023/09/22 00:59:42;;;;;;;64.93;29.13;;;;;;;12.69;100.00;99651.22;4955894;28;20035;-45
2023/09/22 01:02:09;;;;;;;70.25;28.27;;;;;;;12.39;100.00;99607.22;4955655;28;20488;-51
2023/09/22 01:04:35;;;;;;;67.72;29.50;;;;;;;12.47;100.00;99624.38;4954274;29;20142;-45
2023/09/22 01:07:00;;;;;;;74.30;33.50;;;;;;;12.27;100.00;99585.97;4955581;29;20130;-52
2023/09/22 01:09:25;;;;;;;75.07;32.33;;;;;;;12.74;100.00;99657.91;4959855;28;20474;-49
2023/09/22 01:11:51;;;;;;;66.43;30.42;;;;;;;12.77;100.00;99663.00;4974308;28;20039;-47
2023/09/22 01:14:16;;;;;;;90.50;33.88;;;;;;;12.76;100.00;99668.38;4974714;28;20045;-49
2023/09/22 01:16:42;;;;;;;76.30;32.22;;;;;;;12.63;100.00;99641.00;4974664;28;20066;-51
2023/09/22 01:19:16;;;;;;;73.07;34.33;;;;;;;12.71;100.00;99638.75;4974449;28;20031;-51
2023/09/22 01:21:44;;;;;;;79.32;34.08;;;;;;;12.79;100.00;99649.69;4973585;28;20041;-48
2023/09/22 01:24:11;;;;;;;82.80;36.22;;;;;;;12.77;100.00;99639.25;4973463;28;20049;-53
2023/09/22 01:26:38;;;;;;;81.50;35.70;;;;;;;12.79;100.00;99628.56;4955502;28;20042;-49
2023/09/22 01:29:04;;;;;;;75.85;34.20;;;;;;;12.62;100.00;99604.97;4974343;28;20038;-52
2023/09/22 01:31:29;;;;;;;77.20;34.67;;;;;;;12.77;100.00;99636.59;4974393;28;20061;-48
2023/09/22 01:33:56;;;;;;;71.95;33.53;;;;;;;12.78;100.00;99635.63;4974254;28;20380;-50
2023/09/22 01:36:22;;;;;;;82.32;35.28;;;;;;;12.73;100.00;99615.72;4974175;28;20035;-47
2023/09/22 01:38:47;;;;;;;78.50;35.28;;;;;;;12.78;100.00;99622.44;4973166;28;20031;-47
2023/09/22 01:41:13;;;;;;;75.72;34.08;;;;;;;12.77;100.00;99617.25;4974138;28;20125;-49
2023/09/22 01:43:38;;;;;;;67.43;33.17;;;;;;;12.45;100.00;99569.06;4973451;28;20081;-50
2023/09/22 01:46:04;;;;;;;82.25;34.95;;;;;;;12.79;100.00;99618.88;4973726;28;20035;-48
2023/09/22 01:48:29;;;;;;;60.70;30.85;;;;;;;12.44;100.00;99554.16;4974095;28;20035;-49
2023/09/22 01:50:59;;;;;;;72.45;33.03;;;;;;;12.38;100.00;99549.22;4972394;28;20470;-54
2023/09/22 01:53:25;;;;;;;76.55;33.42;;;;;;;12.73;100.00;99605.19;4974086;28;20041;-55
2023/09/22 01:55:50;;;;;;;65.53;30.63;;;;;;;12.41;100.00;99547.25;4972643;28;20035;-53
2023/09/22 01:58:15;;;;;;;63.33;30.15;;;;;;;12.80;100.00;99609.16;4961590;28;20043;-47
2023/09/22 02:00:41;;;;;;;63.25;30.38;;;;;;;12.77;100.00;99612.84;4965320;28;20379;-53
2023/09/22 02:03:06;;;;;;;59.97;30.10;;;;;;;12.78;100.00;99618.97;4973612;28;20145;-55
2023/09/22 02:05:31;;;;;;;63.20;29.23;;;;;;;12.77;100.00;99620.75;4973967;28;20070;-48
2023/09/22 02:08:03;;;;;;;49.88;24.98;;;;;;;12.35;100.00;99544.13;4972647;28;20030;-48
2023/09/22 02:10:28;;;;;;;56.80;27.65;;;;;;;12.79;100.00;99610.09;4972610;28;20031;-54
2023/09/22 02:12:53;;;;;;;48.58;23.55;;;;;;;12.77;100.00;99604.91;4973523;28;20101;-48
2023/09/22 02:15:19;;;;;;;52.45;25.15;;;;;;;12.68;100.00;99599.34;4973273;28;20517;-47
2023/09/22 02:17:46;;;;;;;51.15;25.00;;;;;;;12.37;100.00;99544.91;4972513;28;20047;-47
2023/09/22 02:20:22;;;;;;;41.75;22.58;;;;;;;12.73;100.00;99618.38;4972386;28;20058;-49
2023/09/22 02:22:53;;;;;;;47.90;23.23;;;;;;;12.00;100.00;99503.19;4973749;28;20027;-53
2023/09/22 02:25:19;;;;;;;45.85;22.55;;;;;;;12.74;100.00;99609.53;4973554;28;20023;-51
2023/09/22 02:27:45;;;;;;;41.30;21.45;;;;;;;12.43;100.00;99543.69;4973436;28;20034;-49
2023/09/22 02:30:10;;;;;;;40.80;21.00;;;;;;;12.74;100.00;99591.91;4972009;28;20213;-53
2023/09/22 02:32:38;;;;;;;41.42;21.02;;;;;;;12.77;100.00;99596.13;4972496;28;20470;-47
2023/09/22 02:35:04;;;;;;;43.28;20.55;;;;;;;12.81;100.00;99603.75;4973212;28;20026;-50
2023/09/22 02:37:30;;;;;;;35.08;18.33;;;;;;;12.66;100.00;99574.81;4972856;28;20061;-51
2023/09/22 02:39:55;;;;;;;38.13;17.73;;;;;;;12.43;100.00;99547.19;4973561;28;20467;-50
2023/09/22 02:42:20;;;;;;;34.05;17.50;;;;;;;12.47;100.00;99542.53;4973367;28;20174;-50
2023/09/22 02:44:46;;;;;;;32.70;16.92;;;;;;;12.86;100.00;99612.28;4972849;28;20039;-52
2023/09/22 02:47:11;;;;;;;37.85;18.27;;;;;;;12.87;100.00;99610.50;4972322;28;20113;-55
2023/09/22 02:49:36;;;;;;;32.53;17.23;;;;;;;12.46;100.00;99538.22;4973442;28;20121;-53
2023/09/22 02:52:02;;;;;;;28.52;15.40;;;;;;;12.44;100.00;99530.38;4973552;28;20035;-50
2023/09/22 02:54:28;;;;;;;35.63;16.98;;;;;;;12.52;100.00;99553.69;4973042;28;20043;-53
2023/09/22 02:56:53;;;;;;;37.22;17.15;;;;;;;12.87;100.00;99608.69;4969689;28;20047;-50
2023/09/22 02:59:19;;;;;;;35.42;17.42;;;;;;;12.86;100.00;99606.16;4955469;29;20039;-52
2023/09/22 03:01:44;;;;;;;40.10;18.33;;;;;;;12.86;100.00;99606.16;4957878;29;20046;-48
2023/09/22 03:04:10;;;;;;;35.03;17.95;;;;;;;12.82;100.00;99609.91;4967710;28;20290;-47
2023/09/22 03:06:36;;;;;;;38.88;18.83;;;;;;;12.38;100.00;99533.41;4976495;28;20042;-53
2023/09/22 03:09:06;;;;;;;43.45;19.60;;;;;;;12.61;100.00;99588.28;4975737;28;20030;-49
2023/09/22 03:11:34;;;;;;;40.90;19.88;;;;;;;12.36;100.00;99541.41;4977039;28;20038;-47
2023/09/22 03:14:00;;;;;;;41.30;19.65;;;;;;;12.29;100.00;99520.75;4976793;28;20038;-53
2023/09/22 03:16:27;;;;;;;43.72;21.45;;;;;;;12.76;100.00;99613.78;4975994;28;20394;-48
2023/09/22 03:18:52;;;;;;;41.80;20.38;;;;;;;12.25;100.00;99527.19;4976385;28;20088;-52
2023/09/22 03:21:22;;;;;;;47.75;20.70;;;;;;;12.60;100.00;99593.69;4974808;28;20514;-53
2023/09/22 03:23:48;;;;;;;45.50;21.02;;;;;;;12.73;100.00;99608.66;4976716;28;20563;-47
2023/09/22 03:26:15;;;;;;;48.20;21.42;;;;;;;12.72;100.00;99608.78;4975423;28;20035;-48
2023/09/22 03:28:41;;;;;;;43.80;20.95;;;;;;;12.74;100.00;99614.81;4976655;28;20062;-46
2023/09/22 03:31:06;;;;;;;42.03;20.10;;;;;;;12.31;100.00;99540.84;4976812;28;20039;-49
2023/09/22 03:33:31;;;;;;;45.00;20.48;;;;;;;12.29;100.00;99539.22;4975392;28;20042;-47
2023/09/22 03:35:57;;;;;;;41.47;19.65;;;;;;;12.63;100.00;99615.47;4976439;28;20039;-47
2023/09/22 03:38:22;;;;;;;43.38;19.67;;;;;;;12.50;100.00;99574.88;4974990;28;20053;-51
2023/09/22 03:40:48;;;;;;;42.97;19.13;;;;;;;12.66;100.00;99614.44;4958363;28;20165;-52
2023/09/22 03:43:13;;;;;;;33.58;18.10;;;;;;;12.41;100.00;99559.59;4976400;28;20126;-50
2023/09/22 03:45:39;;;;;;;38.35;19.42;;;;;;;12.25;100.00;99528.03;4976254;28;20041;-49
2023/09/22 03:48:04;;;;;;;38.65;20.00;;;;;;;12.65;100.00;99589.81;4974964;28;20038;-49
2023/09/22 03:50:30;;;;;;;43.90;19.55;;;;;;;12.10;100.00;99509.63;4976258;28;20039;-48
2023/09/22 03:52:55;;;;;;;36.28;18.65;;;;;;;12.67;100.00;99600.25;4975017;28;20066;-49
2023/09/22 03:55:21;;;;;;;37.72;18.67;;;;;;;12.60;100.00;99583.97;4976243;28;20037;-48
2023/09/22 03:57:46;;;;;;;40.03;19.65;;;;;;;12.41;100.00;99526.16;4971020;28;20035;-48
2023/09/22 04:00:19;;;;;;;37.15;18.40;;;;;;;12.77;100.00;99598.78;4956879;28;20129;-47
2023/09/22 04:02:46;;;;;;;34.28;19.27;;;;;;;12.75;100.00;99606.81;4973783;28;20085;-47
2023/09/22 04:05:12;;;;;;;37.63;18.58;;;;;;;12.66;100.00;99572.19;4974825;28;20138;-50
2023/09/22 04:07:38;;;;;;;37.00;19.45;;;;;;;12.86;100.00;99600.88;4974623;28;20078;-48
2023/09/22 04:10:03;;;;;;;28.58;17.65;;;;;;;12.85;100.00;99578.88;4974765;28;20069;-51
2023/09/22 04:12:29;;;;;;;29.27;16.98;;;;;;;12.91;100.00;99601.41;4974750;28;20038;-50
2023/09/22 04:14:56;;;;;;;36.42;19.73;;;;;;;12.55;100.00;99527.94;4976026;28;20035;-53
2023/09/22 04:17:21;;;;;;;29.75;17.95;;;;;;;12.92;100.00;99577.56;4975975;28;20042;-50
2023/09/22 04:19:49;;;;;;;28.52;17.38;;;;;;;12.68;100.00;99543.88;4975730;28;20121;-47
2023/09/22 04:22:16;;;;;;;30.13;18.20;;;;;;;12.76;100.00;99555.69;4975801;28;20039;-46
2023/09/22 04:24:47;;;;;;;30.88;18.63;;;;;;;12.95;100.00;99602.94;4975923;28;20078;-52
2023/09/22 04:27:14;;;;;;;28.85;17.88;;;;;;;12.85;100.00;99599.16;4974199;28;20041;-49
2023/09/22 04:29:39;;;;;;;26.65;18.42;;;;;;;12.81;100.00;99587.91;4975654;28;20511;-51
2023/09/22 04:32:05;;;;;;;22.95;17.23;;;;;;;12.90;100.00;99602.38;4975218;28;20070;-48
2023/09/22 04:34:30;;;;;;;24.58;16.90;;;;;;;12.75;100.00;99587.47;4975644;28;20035;-48
2023/09/22 04:36:55;;;;;;;26.90;17.30;;;;;;;12.79;100.00;99602.16;4974822;28;20438;-48
2023/09/22 04:39:21;;;;;;;25.10;16.38;;;;;;;12.91;100.00;99607.56;4974913;28;20043;-48
2023/09/22 04:41:47;;;;;;;27.52;18.40;;;;;;;12.98;100.00;99613.31;4975617;28;20435;-51
2023/09/22 04:44:12;;;;;;;23.48;16.92;;;;;;;12.95;100.00;99609.06;4974340;28;20098;-49
2023/09/22 04:46:37;;;;;;;23.05;16.20;;;;;;;13.09;100.00;99604.75;4975457;28;20113;-46
2023/09/22 04:49:03;;;;;;;28.23;17.33;;;;;;;13.19;100.00;99612.00;4975246;28;20043;-48
2023/09/22 04:51:28;;;;;;;21.95;16.52;;;;;;;13.24;100.00;99601.16;4974878;28;20062;-47
2023/09/22 04:53:54;;;;;;;19.73;16.35;;;;;;;13.00;100.00;99566.53;4974900;28;20035;-47
2023/09/22 04:56:21;;;;;;;18.98;16.23;;;;;;;13.30;100.00;99609.56;4975146;28;20470;-47
2023/09/22 04:58:47;;;;;;;22.63;16.60;;;;;;;13.22;100.00;99611.00;4958510;28;20472;-48
2023/09/22 05:01:14;;;;;;;20.55;16.10;;;;;;;13.03;100.00;99573.41;4968763;28;20039;-51
2023/09/22 05:03:39;;;;;;;21.60;15.13;;;;;;;13.23;100.00;99604.75;4974894;28;20039;-48
2023/09/22 05:06:06;;;;;;;17.08;14.88;;;;;;;13.06;100.00;99596.97;4974376;28;20049;-47
2023/09/22 05:08:33;;;;;;;16.98;13.55;;;;;;;13.09;100.00;99604.75;4974854;28;20039;-48
2023/09/22 05:11:00;;;;;;;17.92;14.25;;;;;;;12.90;100.00;99592.66;4973745;28;20034;-46
2023/09/22 05:13:26;;;;;;;20.50;14.50;;;;;;;13.01;100.00;99621.06;4974828;28;20030;-45
2023/09/22 05:15:51;;;;;;;17.35;14.50;;;;;;;12.71;100.00;99562.19;4974598;28;20034;-51
2023/09/22 05:18:16;;;;;;;14.68;12.80;;;;;;;13.17;100.00;99618.34;4973732;28;20070;-48
2023/09/22 05:20:42;;;;;;;18.83;13.90;;;;;;;12.84;100.00;99577.16;4974147;28;20046;-46
2023/09/22 05:23:08;;;;;;;15.05;12.75;;;;;;;13.17;100.00;99632.41;4973280;28;20034;-52
2023/09/22 05:25:39;;;;;;;14.65;12.05;;;;;;;13.09;100.00;99613.53;4973577;28;20086;-51
2023/09/22 05:28:05;;;;;;;14.00;12.45;;;;;;;13.27;100.00;99641.47;4973863;28;20134;-47
2023/09/22 05:30:31;;;;;;;16.45;12.65;;;;;;;13.20;100.00;99647.22;4974836;28;20039;-53
2023/09/22 05:32:56;;;;;;;15.32;11.38;;;;;;;12.78;100.00;99576.72;4974320;28;20090;-48
2023/09/22 05:35:22;;;;;;;12.93;11.63;;;;;;;13.17;100.00;99635.03;4973126;28;20034;-48
2023/09/22 05:37:47;;;;;;;12.95;10.20;;;;;;;13.09;100.00;99607.41;4974282;28;20039;-47
2023/09/22 05:40:12;;;;;;;11.10;9.15;;;;;;;13.19;100.00;99641.06;4974140;28;20074;-49
2023/09/22 05:42:39;;;;;;;11.50;8.20;;;;;;;13.22;100.00;99640.06;4974110;28;20042;-47
2023/09/22 05:45:05;;;;;;;12.25;8.60;;;;;;;13.10;100.00;99615.25;4973406;28;20042;-49
2023/09/22 05:47:30;;;;;;;12.05;9.00;;;;;;;13.04;100.00;99630.59;4956773;28;20030;-51
2023/09/22 05:49:56;;;;;;;11.73;7.85;;;;;;;13.19;100.00;99653.47;4974170;28;20038;-47
2023/09/22 05:52:22;;;;;;;13.38;7.82;;;;;;;13.13;100.00;99644.13;4972475;28;20082;-45
2023/09/22 05:54:47;;;;;;;10.35;6.80;;;;;;;13.07;100.00;99647.09;4974504;28;20070;-47
2023/09/22 05:57:13;;;;;;;8.00;6.10;;;;;;;12.71;100.00;99589.44;4969434;28;20085;-49
2023/09/22 05:59:38;;;;;;;7.13;6.40;;;;;;;12.69;100.00;99604.53;4954839;28;20042;-49
2023/09/22 06:02:05;;;;;;;6.63;5.93;;;;;;;13.03;100.00;99663.22;4954354;28;20419;-51
2023/09/22 06:04:32;;;;;;;6.00;5.40;;;;;;;13.03;100.00;99656.16;4953747;29;20035;-51
2023/09/22 06:06:58;;;;;;;6.25;4.78;;;;;;;12.69;100.00;99593.97;4954467;28;20046;-48
2023/09/22 06:09:23;;;;;;;6.53;4.80;;;;;;;12.78;100.00;99597.84;4953114;28;20062;-49
2023/09/22 06:11:49;;;;;;;8.13;5.35;;;;;;;13.21;100.00;99668.25;4967688;28;20042;-48
2023/09/22 06:14:15;;;;;;;6.10;4.80;;;;;;;13.21;100.00;99664.78;4972849;28;20045;-49
2023/09/22 06:16:41;;;;;;;8.05;4.50;;;;;;;12.86;100.00;99606.16;4973030;28;20038;-49
2023/09/22 06:19:08;;;;;;;4.15;3.85;;;;;;;13.26;100.00;99665.31;4971676;28;20099;-47
2023/09/22 06:21:34;;;;;;;7.68;4.40;;;;;;;13.27;100.00;99670.53;4974013;28;20169;-52
2023/09/22 06:24:00;;;;;;;7.20;3.90;;;;;;;13.30;100.00;99656.28;4973505;28;20126;-47
2023/09/22 06:26:25;;;;;;;7.35;3.67;;;;;;;13.33;100.00;99667.50;4973714;28;20549;-47
2023/09/22 06:28:50;;;;;;;4.35;3.17;;;;;;;12.90;100.00;99591.81;4972420;28;20042;-47
2023/09/22 06:31:16;;;;;;;7.93;3.85;;;;;;;12.90;100.00;99594.47;4973687;28;20479;-48
2023/09/22 06:33:42;;;;;;;3.65;2.88;;;;;;;13.18;100.00;99655.25;4971983;28;20031;-51
2023/09/22 06:36:08;;;;;;;4.93;3.25;;;;;;;13.19;100.00;99662.22;4953609;28;20087;-48
2023/09/22 06:38:33;;;;;;;6.90;2.90;;;;;;;13.35;100.00;99677.97;4969303;28;20031;-47
2023/09/22 06:41:00;;;;;;;3.30;3.00;;;;;;;13.11;100.00;99634.56;4953561;28;20051;-46
2023/09/22 06:43:26;;;;;;;3.90;3.00;;;;;;;12.98;100.00;99602.75;4968508;28;20035;-48
2023/09/22 06:45:52;;;;;;;2.95;2.70;;;;;;;13.46;100.00;99686.09;4970836;28;20450;-48
2023/09/22 06:48:26;;;;;;;3.25;2.85;;;;;;;13.37;100.00;99670.78;4973214;28;20034;-46
2023/09/22 06:50:57;;;;;;;3.22;2.78;;;;;;;13.14;100.00;99634.38;4973111;28;20031;-47
2023/09/22 06:53:22;;;;;;;3.35;3.00;;;;;;;13.14;100.00;99616.72;4973312;28;20487;-47
2023/09/22 06:55:49;;;;;;;3.70;2.72;;;;;;;12.81;100.00;99571.25;4973484;28;20082;-47
2023/09/22 06:58:14;;;;;;;3.28;2.20;;;;;;;13.49;100.00;99672.66;4943350;28;20042;-48
2023/09/22 07:00:40;;;;;;;2.88;2.10;;;;;;;13.64;100.00;99698.16;4972054;28;20506;-47
2023/09/22 07:03:06;;;;;;;2.38;1.70;;;;;;;13.39;100.00;99631.91;4971664;28;20122;-48
2023/09/22 07:05:32;;;;;;;2.28;1.65;;;;;;;13.95;100.00;99720.88;4973256;28;20131;-51
2023/09/22 07:07:57;;;;;;;1.63;1.52;;;;;;;13.97;100.00;99703.97;4973028;28;20503;-46
2023/09/22 07:10:24;;;;;;;2.70;1.63;;;;;;;14.06;100.00;99713.09;4972941;28;20034;-46
2023/09/22 07:12:50;;;;;;;2.28;2.00;;;;;;;14.09;100.00;99742.88;4971614;28;20431;-49
2023/09/22 07:15:16;;;;;;;3.15;2.13;;;;;;;14.01;100.00;99716.03;4973225;28;20030;-48
2023/09/22 07:17:43;;;;;;;1.85;1.75;;;;;;;14.28;100.00;99739.03;4971862;28;20046;-55
2023/09/22 07:20:14;;;;;;;1.70;1.60;;;;;;;14.34;100.00;99751.91;4971901;28;20039;-47
2023/09/22 07:22:41;;;;;;;2.70;1.70;;;;;;;14.41;100.00;99756.72;4973080;28;20114;-47
2023/09/22 07:25:06;;;;;;;1.83;1.70;;;;;;;14.42;100.00;99766.34;4972920;28;20054;-47
2023/09/22 07:27:32;;;;;;;2.45;1.90;;;;;;;14.14;100.00;99710.81;4973218;28;20039;-55
2023/09/22 07:29:57;;;;;;;1.98;1.58;;;;;;;14.49;100.00;99772.94;4972820;28;20479;-49
2023/09/22 07:32:22;;;;;;;4.32;1.60;;;;;;;14.46;100.00;99759.91;4972897;28;20129;-49
2023/09/22 07:34:48;;;;;;;1.63;1.40;;;;;;;14.37;100.00;99778.16;4972207;28;20549;-47
2023/09/22 07:37:18;;;;;;;2.88;1.65;;;;;;;14.27;100.00;99762.03;4972864;28;20045;-53
2023/09/22 07:39:43;;;;;;;3.13;2.00;;;;;;;14.30;100.00;99780.31;4972760;28;20141;-48
2023/09/22 07:42:09;;;;;;;3.03;1.95;;;;;;;13.88;100.00;99714.28;4972725;28;20118;-49
2023/09/22 07:44:35;;;;;;;2.70;2.50;;;;;;;13.55;100.00;99677.56;4973488;28;20031;-49
2023/09/22 07:47:03;;;;;;;4.70;3.22;;;;;;;13.88;100.00;99732.78;4976424;28;20027;-53
2023/09/22 07:49:28;;;;;;;2.80;2.60;;;;;;;14.01;100.00;99776.03;4975225;28;20111;-49
2023/09/22 07:51:53;;;;;;;4.35;2.95;;;;;;;14.14;100.00;99787.56;4975035;28;20043;-46
2023/09/22 07:54:22;;;;;;;4.15;3.10;;;;;;;13.81;100.00;99732.31;4976482;28;20062;-52
2023/09/22 07:56:48;;;;;;;2.92;2.67;;;;;;;13.92;100.00;99743.06;4976122;28;20085;-49
2023/09/22 07:59:14;;;;;;;2.97;2.65;;;;;;;13.92;100.00;99737.78;4974531;28;20043;-48
2023/09/22 08:01:42;;;;;;;3.08;2.53;;;;;;;14.17;100.00;99789.16;4975119;28;20035;-49
2023/09/22 08:04:10;;;;;;;4.25;2.90;;;;;;;14.18;100.00;99796.16;4975212;28;20034;-47
2023/09/22 08:06:36;;;;;;;5.00;2.80;;;;;;;14.08;100.00;99794.09;4975900;28;20101;-49
2023/09/22 08:09:03;;;;;;;6.50;3.00;;;;;;;14.12;100.00;99797.41;4974093;28;20039;-48
2023/09/22 08:11:29;;;;;;;3.25;2.95;;;;;;;13.89;100.00;99759.13;4975911;28;20030;-49
2023/09/22 08:13:55;;;;;;;2.75;2.55;;;;;;;13.88;100.00;99770.69;4975794;28;20043;-47
2023/09/22 08:16:20;;;;;;;2.78;2.58;;;;;;;13.94;100.00;99801.19;4975708;28;20486;-49
2023/09/22 08:18:46;;;;;;;4.63;2.97;;;;;;;13.91;100.00;99811.97;4975835;28;20089;-44
2023/09/22 08:21:11;;;;;;;3.50;3.03;;;;;;;13.51;100.00;99766.81;4974907;28;20039;-52
2023/09/22 08:23:36;;;;;;;5.03;3.15;;;;;;;13.78;100.00;99821.59;4975847;28;20495;-46
2023/09/22 08:26:05;;;;;;;3.40;3.00;;;;;;;13.43;100.00;99765.56;4975677;28;20066;-46
2023/09/22 08:28:31;;;;;;;4.30;3.05;;;;;;;13.33;100.00;99753.88;4973833;28;20126;-46
2023/09/22 08:30:57;;;;;;;7.85;3.08;;;;;;;13.82;100.00;99823.97;4975652;28;20041;-52
2023/09/22 08:33:22;;;;;;;3.78;3.38;;;;;;;13.98;100.00;99840.56;4974128;28;20122;-47
2023/09/22 08:35:48;;;;;;;3.65;3.20;;;;;;;13.84;100.00;99811.50;4961305;28;20110;-51
2023/09/22 08:38:14;;;;;;;4.53;2.90;;;;;;;13.62;100.00;99758.22;4943989;28;20082;-47
2023/09/22 08:40:40;;;;;;;3.83;3.30;;;;;;;13.66;100.00;99772.94;4952990;29;20058;-53
2023/09/22 08:43:05;;;;;;;3.30;2.97;;;;;;;14.18;100.00;99841.16;4953687;28;20431;-54
2023/09/22 08:45:31;;;;;;;4.43;3.28;;;;;;;14.41;100.00;99835.28;4954413;29;20042;-46
2023/09/22 08:47:57;;;;;;;2.92;2.63;;;;;;;14.70;100.00;99761.88;4953679;29;20042;-49
2023/09/22 08:50:22;;;;;;;2.75;2.00;;;;;;;15.64;100.00;99817.31;4955982;28;20031;-48
2023/09/22 08:52:51;;;;;;;1.88;1.60;;;;;;;16.62;100.00;99833.28;4941795;28;20185;-51
2023/09/22 08:55:16;;;;;;;4.22;1.65;;;;;;;17.47;100.00;99797.63;4974588;28;20502;-47
2023/09/22 08:57:44;;;;;;;3.63;1.63;;;;;;;18.56;100.00;99858.22;4975019;28;20060;-55
2023/09/22 09:00:20;;;;;;;2.67;1.50;;;;;;;19.17;100.00;99867.38;4975295;28;20039;-53
2023/09/22 09:02:50;;;;;;;2.08;1.33;;;;;;;19.03;100.00;99818.69;4975238;28;20132;-49
2023/09/22 09:05:19;;;;;;;3.13;1.58;;;;;;;18.92;100.00;99897.88;4974997;28;20038;-48
2023/09/22 09:07:45;;;;;;;1.45;1.30;;;;;;;18.88;100.00;99901.78;4974730;28;20099;-52
2023/09/22 09:10:10;;;;;;;2.90;1.42;;;;;;;18.45;100.00;99877.69;4973234;28;20118;-48
2023/09/22 09:12:45;;;;;;;2.15;1.70;;;;;;;18.01;100.00;99913.16;4974818;28;20039;-48
2023/09/22 09:15:10;;;;;;;2.80;1.73;;;;;;;17.83;100.00;99898.63;4974589;28;20413;-51
2023/09/22 09:17:35;;;;;;;2.38;1.55;;;;;;;17.94;100.00;99898.63;4974659;28;20035;-47
2023/09/22 09:20:02;;;;;;;3.33;1.48;;;;;;;18.33;100.00;99884.84;4974570;28;20074;-51
2023/09/22 09:22:33;;;;;;;2.17;1.10;;;;;;;19.26;100.00;99866.63;4974558;28;20569;-47
2023/09/22 09:24:59;;;;;;;3.30;1.40;;;;;;;19.96;100.00;99914.94;4974381;28;20046;-47
2023/09/22 09:27:25;;;;;;;2.42;1.45;;;;;;;19.93;100.00;99859.97;4973197;28;20070;-46
2023/09/22 09:29:51;;;;;;;1.55;1.17;;;;;;;20.65;100.00;99874.06;4971348;28;20062;-47
2023/09/22 09:32:26;;;;;;;3.63;1.30;;;;;;;20.45;100.00;99887.50;4973926;28;20057;-52
2023/09/22 09:34:52;;;;;;;2.35;1.00;;;;;;;19.78;100.00;99885.31;4973097;28;20037;-52
2023/09/22 09:37:19;;;;;;;4.68;1.40;;;;;;;19.23;100.00;99886.41;4972821;28;20039;-54
2023/09/22 09:39:51;;;;;;;1.92;1.13;;;;;;;18.86;100.00;99871.72;4973211;28;20031;-51
2023/09/22 09:42:18;;;;;;;2.45;1.20;;;;;;;18.89;100.00;99924.78;4973147;28;20581;-52
2023/09/22 09:44:50;;;;;;;2.50;1.20;;;;;;;19.36;100.00;99927.09;4974361;28;20041;-52
2023/09/22 09:47:27;;;;;;;3.20;1.92;;;;;;;19.33;100.00;99855.28;4973042;28;20508;-50
2023/09/22 09:49:56;;;;;;;1.80;1.02;;;;;;;19.64;100.00;99874.97;4972873;28;20062;-55
2023/09/22 09:52:33;;;;;;;2.08;1.20;;;;;;;19.95;100.00;99878.50;4974233;28;20487;-57
2023/09/22 09:55:11;;;;;;;4.45;1.42;;;;;;;20.46;100.00;99937.31;4972610;28;20479;-53
2023/09/22 09:57:38;;;;;;;1.48;0.93;;;;;;;20.75;100.00;99946.31;4974014;28;20031;-50
2023/09/22 10:00:12;;;;;;;3.20;1.15;;;;;;;20.52;100.00;99944.81;4973957;28;20042;-52
2023/09/22 10:02:41;;;;;;;1.65;1.25;;;;;;;20.01;100.00;99899.34;4974111;28;20034;-51
2023/09/22 10:05:07;;;;;;;2.90;1.40;;;;;;;19.88;100.00;99904.03;4971723;28;20054;-48
2023/09/22 10:07:36;;;;;;;4.30;1.55;;;;;;;20.25;100.00;99956.06;4956481;28;20395;-49
2023/09/22 10:10:02;;;;;;;3.78;0.90;;;;;;;20.29;100.00;99962.81;4973838;28;20438;-50
2023/09/22 10:12:28;;;;;;;3.38;1.48;;;;;;;20.48;100.00;99954.06;4956184;28;20034;-56
2023/09/22 10:14:59;;;;;;;3.40;1.10;;;;;;;20.16;100.00;99919.41;4973438;28;20030;-55
2023/09/22 10:17:25;;;;;;;1.75;0.80;;;;;;;19.94;100.00;99955.13;4973589;28;20039;-51
2023/09/22 10:19:50;;;;;;;3.22;1.08;;;;;;;19.40;100.00;99957.94;4973831;28;20039;-52
2023/09/22 10:22:16;;;;;;;2.75;1.20;;;;;;;19.33;100.00;99930.00;4972618;28;20085;-54
2023/09/22 10:24:42;;;;;;;2.85;1.00;;;;;;;19.55;100.00;99897.09;4972454;28;20046;-51
2023/09/22 10:27:13;;;;;;;3.03;0.98;;;;;;;20.36;100.00;99949.78;4959610;28;20174;-52
2023/09/22 10:29:43;;;;;;;3.58;1.38;;;;;;;20.64;100.00;99936.53;4965196;28;20537;-51
2023/09/22 10:32:27;;;;;;;2.47;1.17;;;;;;;20.45;100.00;99962.34;4972805;28;20430;-52
2023/09/22 10:34:58;;;;;;;4.65;1.05;;;;;;;20.09;100.00;99953.81;4970691;28;20490;-51
2023/09/22 10:37:24;;;;;;;2.78;1.30;;;;;;;19.72;100.00;99965.94;4971857;28;20054;-54
2023/09/22 10:39:53;;;;;;;2.22;1.20;;;;;;;19.74;100.00;99955.09;4956214;28;20061;-57
2023/09/22 10:42:20;;;;;;;1.75;0.70;;;;;;;19.67;100.00;99931.59;4973311;28;20050;-50
2023/09/22 10:45:05;;;;;;;3.35;0.93;;;;;;;19.90;100.00;99913.63;4973161;28;20039;-51
2023/09/22 10:47:40;;;;;;;2.53;0.80;;;;;;;20.54;100.00;99977.59;4956143;28;20035;-55
2023/09/22 10:50:14;;;;;;;3.47;1.10;;;;;;;21.18;100.00;99989.69;4965717;28;20030;-53
2023/09/22 10:52:42;;;;;;;2.30;0.85;;;;;;;21.76;100.00;99990.59;4968806;28;20030;-52
2023/09/22 10:55:07;;;;;;;1.30;0.68;;;;;;;22.05;100.00;99944.19;4958843;28;20065;-48
2023/09/22 10:57:33;;;;;;;2.88;0.93;;;;;;;22.65;100.00;99967.06;4970611;28;20043;-52
2023/09/22 11:00:00;;;;;;;2.92;1.55;;;;;;;22.25;100.00;99981.53;4952139;29;20031;-51
2023/09/22 11:02:29;;;;;;;1.77;0.80;;;;;;;22.58;100.00;99934.59;4962063;28;20368;-48
2023/09/22 11:04:55;;;;;;;1.95;0.63;;;;;;;22.96;100.00;99907.59;4960804;28;20038;-54
2023/09/22 11:07:38;;;;;;;2.17;1.00;;;;;;;23.01;100.00;100011.78;4968955;28;20118;-50
2023/09/22 11:10:04;;;;;;;2.22;0.80;;;;;;;22.09;100.00;100005.41;4971292;28;20038;-51
2023/09/22 11:12:31;;;;;;;2.15;0.80;;;;;;;20.94;100.00;99946.34;4966977;28;20041;-55
2023/09/22 11:14:56;;;;;;;2.88;0.80;;;;;;;20.72;100.00;99994.72;4961596;28;20031;-51